createdAt,value
2022-12-01T00:01:43.675Z,19.90
2022-12-01T00:04:12.598Z,19.17
2022-12-01T00:06:41.402Z,19.65
2022-12-01T00:09:28.711Z,18.67
2022-12-01T00:11:57.512Z,18.58
2022-12-01T00:14:27.596Z,19.05
2022-12-01T00:16:56.630Z,19.33
2022-12-01T00:19:26.484Z,18.70
2022-12-01T00:21:55.244Z,18.08
2022-12-01T00:24:25.501Z,17.98
2022-12-01T00:26:54.295Z,18.50
2022-12-01T00:29:22.901Z,18.77
2022-12-01T00:31:53.025Z,18.13
2022-12-01T00:34:24.921Z,19.92
2022-12-01T00:36:53.807Z,18.58
2022-12-01T00:39:22.723Z,18.85
2022-12-01T00:41:51.417Z,18.23
2022-12-01T00:44:20.158Z,19.55
2022-12-01T00:46:48.904Z,18.98
2022-12-01T00:49:19.034Z,18.52
2022-12-01T00:51:47.614Z,18.23
2022-12-01T00:54:16.354Z,18.58
2022-12-01T00:56:44.960Z,18.42
2022-12-01T00:59:13.861Z,19.08
2022-12-01T01:01:42.910Z,17.52
2022-12-01T01:04:11.714Z,18.20
2022-12-01T01:06:43.298Z,18.52
2022-12-01T01:09:12.384Z,18.42
2022-12-01T01:11:41.291Z,17.92
2022-12-01T01:14:10.302Z,18.02
2022-12-01T01:16:39.274Z,19.45
2022-12-01T01:19:08.077Z,17.67
2022-12-01T01:21:37.117Z,17.98
2022-12-01T01:24:07.954Z,18.15
2022-12-01T01:26:37.412Z,18.15
2022-12-01T01:29:07.586Z,17.52
2022-12-01T01:31:36.652Z,17.92
2022-12-01T01:34:05.646Z,17.02
2022-12-01T01:36:34.361Z,16.67
2022-12-01T01:39:03.113Z,16.88
2022-12-01T01:41:33.153Z,17.63
2022-12-01T01:44:03.209Z,16.63
2022-12-01T01:46:33.284Z,17.08
2022-12-01T01:49:03.703Z,16.95
2022-12-01T01:51:36.622Z,17.30
2022-12-01T01:54:09.344Z,17.52
2022-12-01T01:56:39.413Z,16.77
2022-12-01T01:59:08.289Z,16.95
2022-12-01T02:01:37.187Z,16.05
2022-12-01T02:04:06.234Z,17.42
2022-12-01T02:06:35.175Z,16.70
2022-12-01T02:09:03.877Z,15.43
2022-12-01T02:11:51.489Z,15.27
2022-12-01T02:14:41.032Z,15.90
2022-12-01T02:17:16.079Z,15.18
2022-12-01T02:20:08.383Z,15.90
2022-12-01T02:22:42.858Z,16.45
2022-12-01T02:25:31.896Z,16.38
2022-12-01T02:28:23.278Z,16.95
2022-12-01T02:30:54.640Z,16.25
2022-12-01T02:33:26.832Z,16.15
2022-12-01T02:36:01.160Z,16.60
2022-12-01T02:38:32.179Z,16.02
2022-12-01T02:41:08.694Z,17.02
2022-12-01T02:43:44.199Z,17.27
2022-12-01T02:46:17.878Z,16.75
2022-12-01T02:48:50.592Z,17.70
2022-12-01T02:51:22.081Z,16.20
2022-12-01T02:53:51.147Z,16.38
2022-12-01T02:56:23.220Z,16.15
2022-12-01T02:58:52.172Z,16.02
2022-12-01T03:01:50.428Z,17.38
2022-12-01T03:04:50.996Z,15.57
2022-12-01T03:07:38.619Z,16.35
2022-12-01T03:10:12.858Z,16.50
2022-12-01T03:12:50.993Z,16.05
2022-12-01T03:15:28.101Z,15.30
2022-12-01T03:18:01.690Z,17.70
2022-12-01T03:20:35.467Z,16.40
2022-12-01T03:23:10.137Z,15.70
2022-12-01T03:25:41.196Z,17.02
2022-12-01T03:28:25.352Z,17.40
2022-12-01T03:30:58.882Z,16.52
2022-12-01T03:33:32.330Z,15.75
2022-12-01T03:36:04.734Z,16.55
2022-12-01T03:38:36.189Z,16.63
2022-12-01T03:41:10.776Z,17.48
2022-12-01T03:43:42.988Z,17.20
2022-12-01T03:46:15.384Z,16.95
2022-12-01T03:48:45.635Z,17.08
2022-12-01T03:51:17.165Z,17.00
2022-12-01T03:53:52.739Z,17.23
2022-12-01T03:56:24.694Z,17.65
2022-12-01T03:58:55.843Z,18.40
2022-12-01T04:01:26.513Z,17.40
2022-12-01T04:03:56.662Z,17.38
2022-12-01T04:06:25.243Z,17.60
2022-12-01T04:08:53.864Z,16.63
2022-12-01T04:11:39.998Z,17.20
2022-12-01T04:14:08.619Z,18.10
2022-12-01T04:16:37.444Z,17.80
2022-12-01T04:19:07.427Z,16.70
2022-12-01T04:21:36.036Z,19.25
2022-12-01T04:24:04.923Z,18.83
2022-12-01T04:26:35.402Z,18.13
2022-12-01T04:29:05.799Z,18.45
2022-12-01T04:31:34.911Z,18.83
2022-12-01T04:34:03.641Z,18.45
2022-12-01T04:36:35.460Z,22.67
2022-12-01T04:39:05.030Z,18.42
2022-12-01T04:41:33.685Z,18.75
2022-12-01T04:44:02.503Z,18.23
2022-12-01T04:46:31.222Z,19.10
2022-12-01T04:48:59.814Z,18.77
2022-12-01T04:51:28.685Z,18.77
2022-12-01T04:53:58.765Z,20.17
2022-12-01T04:56:27.479Z,18.75
2022-12-01T04:58:56.352Z,20.05
2022-12-01T05:01:25.001Z,20.73
2022-12-01T05:03:53.740Z,18.17
2022-12-01T05:06:24.476Z,18.70
2022-12-01T05:08:55.779Z,18.48
2022-12-01T05:11:26.627Z,19.38
2022-12-01T05:13:55.418Z,18.77
2022-12-01T05:16:25.382Z,18.73
2022-12-01T05:19:16.273Z,19.98
2022-12-01T05:21:45.648Z,19.00
2022-12-01T05:24:15.305Z,18.80
2022-12-01T05:26:46.139Z,19.77
2022-12-01T05:29:15.337Z,19.52
2022-12-01T05:31:44.073Z,17.77
2022-12-01T05:34:12.897Z,20.17
2022-12-01T05:36:41.945Z,19.70
2022-12-01T05:39:10.565Z,18.52
2022-12-01T05:41:39.129Z,19.33
2022-12-01T05:44:09.207Z,18.45
2022-12-01T05:46:37.792Z,19.42
2022-12-01T05:49:07.509Z,18.88
2022-12-01T05:51:36.354Z,19.45
2022-12-01T05:54:05.433Z,18.23
2022-12-01T05:56:34.347Z,18.85
2022-12-01T05:59:02.998Z,19.33
2022-12-01T06:01:32.951Z,20.15
2022-12-01T06:04:01.887Z,20.33
2022-12-01T06:06:30.470Z,19.50
2022-12-01T06:08:59.286Z,18.83
2022-12-01T06:11:27.864Z,19.88
2022-12-01T06:13:56.666Z,23.27
2022-12-01T06:16:25.321Z,20.38
2022-12-01T06:18:55.353Z,19.48
2022-12-01T06:21:24.279Z,18.77
2022-12-01T06:23:52.950Z,18.98
2022-12-01T06:26:22.892Z,17.95
2022-12-01T06:28:51.529Z,19.42
2022-12-01T06:31:20.472Z,20.65
2022-12-01T06:33:49.408Z,19.08
2022-12-01T06:36:19.335Z,17.33
2022-12-01T06:38:47.934Z,18.65
2022-12-01T06:41:16.695Z,19.17
2022-12-01T06:43:45.292Z,20.02
2022-12-01T06:46:13.955Z,18.73
2022-12-01T06:48:42.695Z,19.55
2022-12-01T06:51:11.597Z,20.45
2022-12-01T06:53:41.660Z,20.73
2022-12-01T06:56:10.370Z,19.17
2022-12-01T06:58:39.292Z,17.65
2022-12-01T07:01:11.808Z,17.70
2022-12-01T07:03:40.871Z,18.52
2022-12-01T07:06:09.823Z,19.33
2022-12-01T07:08:39.774Z,19.25
2022-12-01T07:11:12.587Z,19.52
2022-12-01T07:13:41.794Z,18.75
2022-12-01T07:16:11.336Z,19.33
2022-12-01T07:18:40.696Z,19.63
2022-12-01T07:21:11.553Z,18.70
2022-12-01T07:23:41.794Z,19.90
2022-12-01T07:26:12.850Z,19.88
2022-12-01T07:28:41.963Z,19.80
2022-12-01T07:31:12.409Z,19.02
2022-12-01T07:33:41.654Z,18.90
2022-12-01T07:36:11.761Z,19.02
2022-12-01T07:38:42.277Z,19.20
2022-12-01T07:41:12.573Z,17.40
2022-12-01T07:43:41.704Z,18.52
2022-12-01T07:46:17.229Z,18.77
2022-12-01T07:48:49.573Z,18.58
2022-12-01T07:51:19.170Z,19.45
2022-12-01T07:53:50.429Z,19.08
2022-12-01T07:56:20.165Z,18.85
2022-12-01T07:58:48.932Z,18.70
2022-12-01T08:01:20.444Z,19.02
2022-12-01T08:03:50.199Z,23.00
2022-12-01T08:06:19.614Z,17.50
2022-12-01T08:08:50.435Z,19.08
2022-12-01T08:11:21.327Z,20.15
2022-12-01T08:13:50.541Z,19.15
2022-12-01T08:16:21.582Z,17.48
2022-12-01T08:18:50.736Z,17.17
2022-12-01T08:21:21.379Z,17.05
2022-12-01T08:23:54.430Z,19.65
2022-12-01T08:26:23.959Z,17.30
2022-12-01T08:28:52.608Z,17.15
2022-12-01T08:31:23.386Z,17.25
2022-12-01T08:33:52.495Z,16.40
2022-12-01T08:36:21.961Z,17.45
2022-12-01T08:38:53.750Z,17.25
2022-12-01T08:41:23.386Z,17.48
2022-12-01T08:44:00.421Z,17.27
2022-12-01T08:46:33.235Z,17.38
2022-12-01T08:49:02.751Z,17.48
2022-12-01T08:51:31.857Z,18.73
2022-12-01T08:54:02.568Z,18.23
2022-12-01T08:56:32.771Z,18.58
2022-12-01T08:59:01.927Z,17.63
2022-12-01T09:01:30.930Z,17.85
2022-12-01T09:04:08.674Z,17.85
2022-12-01T09:06:40.931Z,16.55
2022-12-01T09:09:12.817Z,16.90
2022-12-01T09:11:43.882Z,17.02
2022-12-01T09:14:13.364Z,18.08
2022-12-01T09:16:43.653Z,18.20
2022-12-01T09:19:13.454Z,18.02
2022-12-01T09:21:43.381Z,17.95
2022-12-01T09:24:14.895Z,18.80
2022-12-01T09:26:44.132Z,17.27
2022-12-01T09:29:14.965Z,17.05
2022-12-01T09:31:44.292Z,17.58
2022-12-01T09:34:15.089Z,17.33
2022-12-01T09:36:43.992Z,17.75
2022-12-01T09:39:15.382Z,17.88
2022-12-01T09:41:47.832Z,18.13
2022-12-01T09:44:21.871Z,18.35
2022-12-01T09:46:53.195Z,18.55
2022-12-01T09:49:24.961Z,17.88
2022-12-01T09:51:55.127Z,18.30
2022-12-01T09:54:25.104Z,18.73
2022-12-01T09:56:55.569Z,17.33
2022-12-01T09:59:26.630Z,17.52
2022-12-01T10:02:00.273Z,17.58
2022-12-01T10:04:32.608Z,16.30
2022-12-01T10:07:03.226Z,17.10
2022-12-01T10:09:37.955Z,16.92
2022-12-01T10:12:12.910Z,18.67
2022-12-01T10:14:41.573Z,18.05
2022-12-01T10:17:19.571Z,17.23
2022-12-01T10:19:53.407Z,18.17
2022-12-01T10:22:33.347Z,17.45
2022-12-01T10:25:15.287Z,16.98
2022-12-01T10:27:53.175Z,17.83
2022-12-01T10:30:23.823Z,18.05
2022-12-01T10:32:54.520Z,18.25
2022-12-01T10:35:24.925Z,18.60
2022-12-01T10:37:56.827Z,17.58
2022-12-01T10:40:27.611Z,16.88
2022-12-01T10:42:56.818Z,18.65
2022-12-01T10:45:27.546Z,17.50
2022-12-01T10:48:11.511Z,17.33
2022-12-01T10:50:40.998Z,16.50
2022-12-01T10:53:28.541Z,17.52
2022-12-01T10:56:11.403Z,16.60
2022-12-01T10:58:47.908Z,18.02
2022-12-01T11:01:24.925Z,18.52
2022-12-01T11:03:56.974Z,19.15
2022-12-01T11:06:27.785Z,16.52
2022-12-01T11:08:58.981Z,16.98
2022-12-01T11:11:32.847Z,18.35
2022-12-01T11:14:06.495Z,17.65
2022-12-01T11:16:44.155Z,16.65
2022-12-01T11:19:29.106Z,16.60
2022-12-01T11:22:00.252Z,15.77
2022-12-01T11:24:43.329Z,17.92
2022-12-01T11:27:18.691Z,16.42
2022-12-01T11:29:49.722Z,17.25
2022-12-01T11:32:24.067Z,16.40
2022-12-01T11:34:56.904Z,16.77
2022-12-01T11:37:32.852Z,16.05
2022-12-01T11:40:14.964Z,16.77
2022-12-01T11:42:49.864Z,15.88
2022-12-01T11:45:29.001Z,16.38
2022-12-01T11:48:03.198Z,16.83
2022-12-01T11:50:33.608Z,12.00
2022-12-01T11:53:03.124Z,16.88
2022-12-01T11:55:33.152Z,15.52
2022-12-01T11:58:05.169Z,17.30
2022-12-01T12:00:44.981Z,16.20
2022-12-01T12:03:20.987Z,15.88
2022-12-01T12:09:17.671Z,16.48
2022-12-01T12:11:54.426Z,14.50
2022-12-01T12:14:54.537Z,15.90
2022-12-01T12:17:33.033Z,15.52
2022-12-01T12:20:28.729Z,16.63
2022-12-01T12:23:06.410Z,15.30
2022-12-01T12:25:46.859Z,15.27
2022-12-01T12:28:26.355Z,15.48
2022-12-01T12:30:59.613Z,16.15
2022-12-01T12:33:55.682Z,16.27
2022-12-01T12:39:05.000Z,14.65
2022-12-01T12:41:37.740Z,16.27
2022-12-01T12:44:25.386Z,16.92
2022-12-01T12:47:02.292Z,16.63
2022-12-01T12:49:40.197Z,15.50
2022-12-01T12:52:14.203Z,15.90
2022-12-01T12:54:48.658Z,15.20
2022-12-01T12:57:26.290Z,15.45
2022-12-01T12:59:59.304Z,15.85
2022-12-01T13:02:34.770Z,14.55
2022-12-01T13:05:08.263Z,15.32
2022-12-01T13:07:41.793Z,15.40
2022-12-01T13:10:17.997Z,15.00
2022-12-01T13:12:54.401Z,15.75
2022-12-01T13:15:23.530Z,15.95
2022-12-01T13:17:55.023Z,15.55
2022-12-01T13:20:28.759Z,16.25
2022-12-01T13:22:58.765Z,14.80
2022-12-01T13:25:31.009Z,15.20
2022-12-01T13:28:00.811Z,15.77
2022-12-01T13:30:30.085Z,15.85
2022-12-01T13:33:05.455Z,13.90
2022-12-01T13:35:36.300Z,14.80
2022-12-01T13:38:24.791Z,15.38
2022-12-01T13:41:29.856Z,14.35
2022-12-01T13:44:04.639Z,14.20
2022-12-01T13:46:51.437Z,15.82
2022-12-01T13:49:43.990Z,14.88
2022-12-01T13:52:28.367Z,15.82
2022-12-01T13:55:20.329Z,14.55
2022-12-01T13:57:51.589Z,15.70
2022-12-01T14:00:26.054Z,15.80
2022-12-01T14:03:33.931Z,14.93
2022-12-01T14:06:11.332Z,15.10
2022-12-01T14:08:48.028Z,14.23
2022-12-01T14:11:22.762Z,14.40
2022-12-01T14:13:54.939Z,16.02
2022-12-01T14:16:24.581Z,14.75
2022-12-01T14:18:56.547Z,13.77
2022-12-01T14:21:48.479Z,14.43
2022-12-01T14:24:24.054Z,14.73
2022-12-01T14:26:53.996Z,14.73
2022-12-01T14:29:31.688Z,15.27
2022-12-01T14:32:27.145Z,14.10
2022-12-01T14:35:09.980Z,14.05
2022-12-01T14:37:52.236Z,14.68
2022-12-01T14:40:26.550Z,15.18
2022-12-01T14:43:14.881Z,14.13
2022-12-01T14:45:55.382Z,14.63
2022-12-01T14:48:28.223Z,16.67
2022-12-01T14:51:10.715Z,15.13
2022-12-01T14:53:45.516Z,16.02
2022-12-01T14:56:17.628Z,15.32
2022-12-01T14:58:55.164Z,16.30
2022-12-01T15:01:24.633Z,15.93
2022-12-01T15:03:56.029Z,15.65
2022-12-01T15:06:26.826Z,15.73
2022-12-01T15:12:02.607Z,14.63
2022-12-01T15:14:33.923Z,15.35
2022-12-01T15:17:05.188Z,14.85
2022-12-01T15:19:36.523Z,14.52
2022-12-01T15:22:08.087Z,15.10
2022-12-01T15:24:37.992Z,13.73
2022-12-01T15:27:21.414Z,15.15
2022-12-01T15:29:50.352Z,15.85
2022-12-01T15:32:19.837Z,15.05
2022-12-01T15:34:50.747Z,14.88
2022-12-01T15:37:20.769Z,15.30
2022-12-01T15:39:52.422Z,15.80
2022-12-01T15:42:25.841Z,16.33
2022-12-01T15:45:01.717Z,14.93
2022-12-01T15:47:36.967Z,14.93
2022-12-01T15:50:06.960Z,15.38
2022-12-01T15:52:43.707Z,15.57
2022-12-01T15:55:28.695Z,17.30
2022-12-01T15:57:57.949Z,16.67
2022-12-01T16:00:27.022Z,16.55
2022-12-01T16:02:57.350Z,17.05
2022-12-01T16:05:28.739Z,18.90
2022-12-01T16:08:13.901Z,16.92
2022-12-01T16:13:39.698Z,14.93
2022-12-01T16:16:39.616Z,15.82
2022-12-01T16:19:29.728Z,14.93
2022-12-01T16:22:05.701Z,14.43
2022-12-01T16:24:35.675Z,16.10
2022-12-01T16:27:07.028Z,16.35
2022-12-01T16:29:45.022Z,15.75
2022-12-01T16:32:21.038Z,16.63
2022-12-01T16:34:53.420Z,16.17
2022-12-01T16:37:22.554Z,16.90
2022-12-01T16:39:51.584Z,16.35
2022-12-01T16:42:22.616Z,15.90
2022-12-01T16:44:52.911Z,16.88
2022-12-01T16:47:23.739Z,17.05
2022-12-01T16:49:54.942Z,16.17
2022-12-01T16:55:30.331Z,17.38
2022-12-01T16:58:00.270Z,16.88
2022-12-01T17:00:29.614Z,16.73
2022-12-01T17:02:59.042Z,17.25
2022-12-01T17:05:28.226Z,18.15
2022-12-01T17:07:57.297Z,16.23
2022-12-01T17:10:26.173Z,17.30
2022-12-01T17:12:54.871Z,16.42
2022-12-01T17:15:25.172Z,17.30
2022-12-01T17:17:54.230Z,17.00
2022-12-01T17:20:22.927Z,18.33
2022-12-01T17:22:51.750Z,17.08
2022-12-01T17:25:20.571Z,16.88
2022-12-01T17:27:49.240Z,17.17
2022-12-01T17:30:18.149Z,19.73
2022-12-01T17:32:48.207Z,16.13
2022-12-01T17:35:17.223Z,16.23
2022-12-01T17:37:46.162Z,15.40
2022-12-01T17:40:15.618Z,18.58
2022-12-01T17:42:50.214Z,30.98
2022-12-01T17:45:19.467Z,16.88
2022-12-01T17:47:49.854Z,17.35
2022-12-01T17:50:18.990Z,16.40
2022-12-01T17:52:47.755Z,16.80
2022-12-01T17:55:16.593Z,16.88
2022-12-01T17:57:45.480Z,16.95
2022-12-01T18:00:15.503Z,17.63
2022-12-01T18:02:44.232Z,18.80
2022-12-01T18:05:14.294Z,16.98
2022-12-01T18:07:43.060Z,16.20
2022-12-01T18:10:12.218Z,17.08
2022-12-01T18:12:41.245Z,17.10
2022-12-01T18:15:10.905Z,16.80
2022-12-01T18:17:39.843Z,16.67
2022-12-01T18:20:09.810Z,16.40
2022-12-01T18:22:39.944Z,16.70
2022-12-01T18:25:09.397Z,16.17
2022-12-01T18:27:38.138Z,15.80
2022-12-01T18:30:08.185Z,15.05
2022-12-01T18:32:36.745Z,15.95
2022-12-01T18:35:06.243Z,15.52
2022-12-01T18:37:36.309Z,18.55
2022-12-01T18:40:07.766Z,20.42
2022-12-01T18:42:36.571Z,16.45
2022-12-01T18:45:05.736Z,16.45
2022-12-01T18:47:34.514Z,16.75
2022-12-01T18:50:03.419Z,15.25
2022-12-01T18:52:32.345Z,15.60
2022-12-01T18:55:01.017Z,15.25
2022-12-01T18:57:31.254Z,16.08
2022-12-01T19:00:00.111Z,15.43
2022-12-01T19:02:28.870Z,16.35
2022-12-01T19:04:57.494Z,16.05
2022-12-01T19:07:29.705Z,15.57
2022-12-01T19:09:58.991Z,15.77
2022-12-01T19:12:27.724Z,17.02
2022-12-01T19:14:57.829Z,15.60
2022-12-01T19:17:26.567Z,15.98
2022-12-01T19:19:55.609Z,16.60
2022-12-01T19:22:24.235Z,16.38
2022-12-01T19:24:53.385Z,16.05
2022-12-01T19:27:22.482Z,15.90
2022-12-01T19:29:52.364Z,15.90
2022-12-01T19:32:23.171Z,16.45
2022-12-01T19:34:52.299Z,16.55
2022-12-01T19:37:21.189Z,17.38
2022-12-01T19:39:50.546Z,15.13
2022-12-01T19:42:19.244Z,15.52
2022-12-01T19:44:49.114Z,16.95
2022-12-01T19:47:22.143Z,16.17
2022-12-01T19:49:52.576Z,17.00
2022-12-01T19:52:21.294Z,15.95
2022-12-01T19:54:50.221Z,16.15
2022-12-01T19:57:19.302Z,17.13
2022-12-01T19:59:48.101Z,16.55
2022-12-01T20:02:16.767Z,16.80
2022-12-01T20:04:45.582Z,17.92
2022-12-01T20:07:16.353Z,16.88
2022-12-01T20:09:50.040Z,16.95
2022-12-01T20:12:19.378Z,17.30
2022-12-01T20:14:48.602Z,15.60
2022-12-01T20:17:17.681Z,16.38
2022-12-01T20:19:46.623Z,17.77
2022-12-01T20:22:16.669Z,17.65
2022-12-01T20:24:45.638Z,17.40
2022-12-01T20:27:14.416Z,17.17
2022-12-01T20:29:43.021Z,18.25
2022-12-01T20:32:12.063Z,17.20
2022-12-01T20:34:41.284Z,17.05
2022-12-01T20:37:10.926Z,17.02
2022-12-01T20:39:41.509Z,16.95
2022-12-01T20:42:11.253Z,16.63
2022-12-01T20:44:40.524Z,16.45
2022-12-01T20:47:09.244Z,23.13
2022-12-01T20:49:37.887Z,17.45
2022-12-01T20:52:06.954Z,16.48
2022-12-01T20:54:35.848Z,18.77
2022-12-01T20:57:05.865Z,17.92
2022-12-01T20:59:35.323Z,17.92
2022-12-01T21:02:04.382Z,17.23
2022-12-01T21:04:33.152Z,18.15
2022-12-01T21:07:02.233Z,19.58
2022-12-01T21:09:31.030Z,19.42
2022-12-01T21:12:18.196Z,19.08
2022-12-01T21:14:52.831Z,17.52
2022-12-01T21:17:26.845Z,17.45
2022-12-01T21:20:01.680Z,17.33
2022-12-01T21:22:30.380Z,19.45
2022-12-01T21:25:07.382Z,17.77
2022-12-01T21:27:35.996Z,18.45
2022-12-01T21:30:15.957Z,17.98
2022-12-01T21:32:45.229Z,19.08
2022-12-01T21:35:19.592Z,18.30
2022-12-01T21:37:48.954Z,18.80
2022-12-01T21:40:19.473Z,18.02
2022-12-01T21:42:48.738Z,18.23
2022-12-01T21:45:28.556Z,18.98
2022-12-01T21:48:01.321Z,18.17
2022-12-01T21:50:29.930Z,18.70
2022-12-01T21:53:00.016Z,19.80
2022-12-01T21:55:38.921Z,18.50
2022-12-01T21:58:34.490Z,18.40
2022-12-01T22:01:10.687Z,17.80
2022-12-01T22:03:44.534Z,18.05
2022-12-01T22:06:29.907Z,18.45
2022-12-01T22:09:02.402Z,18.48
2022-12-01T22:11:31.908Z,18.02
2022-12-01T22:14:05.975Z,17.75
2022-12-01T22:16:38.011Z,16.40
2022-12-01T22:19:22.338Z,18.52
2022-12-01T22:21:51.469Z,18.00
2022-12-01T22:24:28.459Z,17.83
2022-12-01T22:27:22.085Z,18.88
2022-12-01T22:29:53.651Z,17.95
2022-12-01T22:32:34.274Z,19.00
2022-12-01T22:35:21.856Z,17.83
2022-12-01T22:37:52.273Z,18.10
2022-12-01T22:40:37.520Z,17.55
2022-12-01T22:43:23.512Z,16.63
2022-12-01T22:46:01.958Z,19.25
2022-12-01T22:48:36.221Z,20.00
2022-12-01T22:51:37.732Z,18.25
2022-12-01T22:54:28.386Z,17.73
2022-12-01T22:57:11.103Z,19.02
2022-12-01T22:59:41.631Z,18.10
2022-12-01T23:02:21.016Z,17.40
2022-12-01T23:04:53.549Z,18.90
2022-12-01T23:07:34.819Z,18.65
2022-12-01T23:10:08.215Z,17.88
2022-12-01T23:12:37.763Z,18.80
2022-12-01T23:15:21.574Z,18.17
2022-12-01T23:17:50.699Z,18.13
2022-12-01T23:20:32.774Z,18.42
2022-12-01T23:23:03.616Z,18.23
2022-12-01T23:25:32.953Z,18.35
2022-12-01T23:28:04.904Z,18.65
2022-12-01T23:30:33.894Z,18.38
2022-12-01T23:33:14.494Z,17.75
2022-12-01T23:35:48.869Z,18.05
2022-12-01T23:38:20.984Z,18.75
2022-12-01T23:40:50.729Z,19.27
2022-12-01T23:43:22.204Z,19.48
2022-12-01T23:45:53.966Z,18.98
2022-12-01T23:48:26.452Z,18.38
2022-12-01T23:50:56.637Z,17.38
2022-12-01T23:53:30.221Z,17.92
2022-12-01T23:56:02.621Z,19.23
2022-12-01T23:58:31.461Z,18.60
